Home > Products > Valid Products > TAF

000
FTUS42 KMFL 290536
TAFMIA
TAF
KMIA 290536Z 2906/3006 34008KT P6SM FEW050
     FM292100 07011KT P6SM SCT050 SCT250=



000
FTUS42 KMFL 290536
TAFAPF
TAF
KAPF 290536Z 2906/3006 05009KT P6SM SKC=



000
FTUS42 KMFL 290536
TAFPBI
TAF
KPBI 290536Z 2906/3006 33010KT P6SM FEW050
     FM291400 06011KT P6SM SCT040 SCT250=



000
FTUS42 KMFL 290536
TAFFLL
TAF
KFLL 290536Z 2906/3006 34008KT P6SM FEW050
     FM291500 07013KT P6SM SCT040 SCT250=



000
FTUS42 KMFL 290536
TAFFLL
TAF
KFLL 290536Z 2906/3006 34008KT P6SM FEW050
     FM291500 07013KT P6SM SCT040 SCT250=



000
FTUS42 KMFL 290536
TAFMIA
TAF
KMIA 290536Z 2906/3006 34008KT P6SM FEW050
     FM292100 07011KT P6SM SCT050 SCT250=



000
FTUS42 KMFL 290536
TAFPBI
TAF
KPBI 290536Z 2906/3006 33010KT P6SM FEW050
     FM291400 06011KT P6SM SCT040 SCT250=



000
FTUS42 KMFL 290536
TAFAPF
TAF
KAPF 290536Z 2906/3006 05009KT P6SM SKC=



000
FTUS42 KMFL 290247 AAA
TAFPBI
TAF AMD
KPBI 290247Z 2903/2924 33010KT P6SM FEW050 SCT250
     FM291400 06011KT P6SM SCT040 SCT250=



000
FTUS42 KMFL 290247 AAA
TAFFLL
TAF AMD
KFLL 290247Z 2903/2924 34010KT P6SM FEW025 FEW050 SCT300
     FM291500 07013KT P6SM SCT040 SCT250=



000
FTUS42 KMFL 290247 AAA
TAFMIA
TAF AMD
KMIA 290247Z 2903/2924 35009KT P6SM FEW050
     FM292100 07011KT P6SM SCT050 SCT250=



000
FTUS42 KMFL 290247 AAA
TAFPBI
TAF AMD
KPBI 290247Z 2903/2924 33010KT P6SM FEW050 SCT250
     FM291400 06011KT P6SM SCT040 SCT250=



000
FTUS42 KMFL 290247 AAA
TAFFLL
TAF AMD
KFLL 290247Z 2903/2924 34010KT P6SM FEW025 FEW050 SCT300
     FM291500 07013KT P6SM SCT040 SCT250=



000
FTUS42 KMFL 290247 AAA
TAFMIA
TAF AMD
KMIA 290247Z 2903/2924 35009KT P6SM FEW050
     FM292100 07011KT P6SM SCT050 SCT250=



000
FTUS42 KMFL 290247 AAA
TAFAPF
TAF AMD
KAPF 290247Z 2903/2924 03005KT P6SM SKC
     FM291400 06010KT P6SM SKC=



000
FTUS42 KMFL 290247 AAA
TAFAPF
TAF AMD
KAPF 290247Z 2903/2924 03005KT P6SM SKC
     FM291400 06010KT P6SM SKC=



000
FTUS42 KMFL 290247 AAA
TAFPBI
TAF AMD
KPBI 290247Z 2903/2924 33010KT P6SM FEW050 SCT250
     FM291400 06011KT P6SM SCT040 SCT250=



000
FTUS42 KMFL 290247 AAA
TAFFLL
TAF AMD
KFLL 290247Z 2903/2924 34010KT P6SM FEW025 FEW050 SCT300
     FM291500 07013KT P6SM SCT040 SCT250=



000
FTUS42 KMFL 290247 AAA
TAFPBI
TAF AMD
KPBI 290247Z 2903/2924 33010KT P6SM FEW050 SCT250
     FM291400 06011KT P6SM SCT040 SCT250=



000
FTUS42 KMFL 290247 AAA
TAFFLL
TAF AMD
KFLL 290247Z 2903/2924 34010KT P6SM FEW025 FEW050 SCT300
     FM291500 07013KT P6SM SCT040 SCT250=



000
FTUS42 KMFL 290247 AAA
TAFMIA
TAF AMD
KMIA 290247Z 2903/2924 35009KT P6SM FEW050
     FM292100 07011KT P6SM SCT050 SCT250=



000
FTUS42 KMFL 290247 AAA
TAFMIA
TAF AMD
KMIA 290247Z 2903/2924 35009KT P6SM FEW050
     FM292100 07011KT P6SM SCT050 SCT250=



000
FTUS42 KMFL 282340
TAFFLL
TAF
KFLL 282340Z 2900/2924 36010KT P6SM FEW040 SCT300
     FM290600 04011KT P6SM FEW250
     FM291500 07013KT P6SM BKN250=



000
FTUS42 KMFL 282340
TAFPBI
TAF
KPBI 282340Z 2900/2924 33012KT P6SM FEW040 SCT050 BKN250
     FM290100 35010KT P6SM SCT035 SCT250
     FM290600 03010KT P6SM FEW250
     FM291800 06011KT P6SM BKN250=



000
FTUS42 KMFL 282340
TAFAPF
TAF
KAPF 282340Z 2900/2924 03005KT P6SM SKC
     FM290600 03005KT P6SM SKC
     FM291400 04008KT P6SM SKC
     FM291800 06010G17KT P6SM SKC=



000
FTUS42 KMFL 282340
TAFMIA
TAF
KMIA 282340Z 2900/2924 36005KT P6SM FEW045 FEW300
     FM290600 02007KT P6SM FEW250
     FM291500 07013G19KT P6SM SCT250
     FM292100 07011KT P6SM SCT250=



000
FTUS42 KMFL 282340
TAFFLL
TAF
KFLL 282340Z 2900/2924 36010KT P6SM FEW040 SCT300
     FM290600 04011KT P6SM FEW250
     FM291500 07013KT P6SM BKN250=



000
FTUS42 KMFL 282340
TAFPBI
TAF
KPBI 282340Z 2900/2924 33012KT P6SM FEW040 SCT050 BKN250
     FM290100 35010KT P6SM SCT035 SCT250
     FM290600 03010KT P6SM FEW250
     FM291800 06011KT P6SM BKN250=



000
FTUS42 KMFL 282340
TAFAPF
TAF
KAPF 282340Z 2900/2924 03005KT P6SM SKC
     FM290600 03005KT P6SM SKC
     FM291400 04008KT P6SM SKC
     FM291800 06010G17KT P6SM SKC=



000
FTUS42 KMFL 282340
TAFMIA
TAF
KMIA 282340Z 2900/2924 36005KT P6SM FEW045 FEW300
     FM290600 02007KT P6SM FEW250
     FM291500 07013G19KT P6SM SCT250
     FM292100 07011KT P6SM SCT250=



000
FTUS42 KMFL 282106 AAB
TAFFLL
TAF AMD
KFLL 282106Z 2821/2918 36009KT P6SM SCT040 SCT300
     FM290600 03008KT P6SM FEW250=



000
FTUS42 KMFL 282106 AAB
TAFFLL
TAF AMD
KFLL 282106Z 2821/2918 36009KT P6SM SCT040 SCT300
     FM290600 03008KT P6SM FEW250=



000
FTUS42 KMFL 282106 AAB
TAFMIA
TAF AMD
KMIA 282106Z 2821/2918 35006KT P6SM SCT045 SCT300
     FM290600 02007KT P6SM FEW250=



000
FTUS42 KMFL 282106 AAB
TAFMIA
TAF AMD
KMIA 282106Z 2821/2918 35006KT P6SM SCT045 SCT300
     FM290600 02007KT P6SM FEW250=



000
FTUS42 KMFL 282105 AAB
TAFPBI
TAF AMD
KPBI 282105Z 2821/2918 34016G19KT P6SM SCT040 SCT250
     FM290100 36011KT P6SM SCT035 SCT250
     FM290600 03008KT P6SM FEW250=



000
FTUS42 KMFL 282105 AAB
TAFPBI
TAF AMD
KPBI 282105Z 2821/2918 34016G19KT P6SM SCT040 SCT250
     FM290100 36011KT P6SM SCT035 SCT250
     FM290600 03008KT P6SM FEW250=



000
FTUS42 KMFL 281939 AAA
TAFAPF
TAF AMD
KAPF 281939Z 2820/2918 01009KT P6SM SKC
     FM290600 03005KT P6SM SKC=



000
FTUS42 KMFL 281939 AAA
TAFFLL
TAF AMD
KFLL 281939Z 2820/2918 35010KT P6SM FEW040 SCT230 BKN300
     FM290600 03008KT P6SM FEW250=



000
FTUS42 KMFL 281939 AAA
TAFMIA
TAF AMD
KMIA 281939Z 2820/2918 VRB05KT P6SM FEW040 SCT300
     FM290600 02007KT P6SM FEW250=



000
FTUS42 KMFL 281939 AAA
TAFPBI
TAF AMD
KPBI 281939Z 2820/2918 01010G19KT P6SM SCT035 SCT250
     FM290600 03008KT P6SM FEW250=



000
FTUS42 KMFL 281939 AAA
TAFFLL
TAF AMD
KFLL 281939Z 2820/2918 35010KT P6SM FEW040 SCT230 BKN300
     FM290600 03008KT P6SM FEW250=



000
FTUS42 KMFL 281939 AAA
TAFPBI
TAF AMD
KPBI 281939Z 2820/2918 01010G19KT P6SM SCT035 SCT250
     FM290600 03008KT P6SM FEW250=



000
FTUS42 KMFL 281939 AAA
TAFAPF
TAF AMD
KAPF 281939Z 2820/2918 01009KT P6SM SKC
     FM290600 03005KT P6SM SKC=



000
FTUS42 KMFL 281939 AAA
TAFMIA
TAF AMD
KMIA 281939Z 2820/2918 VRB05KT P6SM FEW040 SCT300
     FM290600 02007KT P6SM FEW250=



000
FTUS42 KMFL 281734
TAFMIA
TAF
KMIA 281734Z 2818/2918 34009G15KT P6SM FEW040 FEW300
     FM290600 02007KT P6SM FEW250=



000
FTUS42 KMFL 281734
TAFFLL
TAF
KFLL 281734Z 2818/2918 33011KT P6SM FEW028 SCT040
     FM290600 03008KT P6SM FEW250=



000
FTUS42 KMFL 281734
TAFPBI
TAF
KPBI 281734Z 2818/2918 36015KT P6SM SCT040 SCT250
     FM281900 02011G17KT P6SM SCT040
     FM290600 03008KT P6SM FEW250=



000
FTUS42 KMFL 281734
TAFAPF
TAF
KAPF 281734Z 2818/2918 01009KT P6SM FEW040
     FM290600 03005KT P6SM SKC=



000
FTUS42 KMFL 281734
TAFMIA
TAF
KMIA 281734Z 2818/2918 34009G15KT P6SM FEW040 FEW300
     FM290600 02007KT P6SM FEW250=



000
FTUS42 KMFL 281734
TAFFLL
TAF
KFLL 281734Z 2818/2918 33011KT P6SM FEW028 SCT040
     FM290600 03008KT P6SM FEW250=



000
FTUS42 KMFL 281734
TAFAPF
TAF
KAPF 281734Z 2818/2918 01009KT P6SM FEW040
     FM290600 03005KT P6SM SKC=



000
FTUS42 KMFL 281734
TAFPBI
TAF
KPBI 281734Z 2818/2918 36015KT P6SM SCT040 SCT250
     FM281900 02011G17KT P6SM SCT040
     FM290600 03008KT P6SM FEW250=



000
FTUS42 KMFL 281120
TAFFLL
TAF
KFLL 281120Z 2812/2912 33009KT P6SM SKC
     FM281800 02010KT P6SM SCT040
     FM290600 03008KT P6SM FEW250=



000
FTUS42 KMFL 281120
TAFMIA
TAF
KMIA 281120Z 2812/2912 34010KT P6SM FEW040
     FM281800 02010G15KT P6SM SCT040
     FM290600 02007KT P6SM FEW250=



000
FTUS42 KMFL 281120
TAFFLL
TAF
KFLL 281120Z 2812/2912 33009KT P6SM SKC
     FM281800 02010KT P6SM SCT040
     FM290600 03008KT P6SM FEW250=



000
FTUS42 KMFL 281120
TAFPBI
TAF
KPBI 281120Z 2812/2912 32011G17KT P6SM SKC
     FM281900 02011G17KT P6SM SCT040
     FM290600 03008KT P6SM FEW250=



000
FTUS42 KMFL 281120
TAFAPF
TAF
KAPF 281120Z 2812/2912 01009G15KT P6SM SKC
     FM290600 03005KT P6SM SKC=



000
FTUS42 KMFL 281120
TAFAPF
TAF
KAPF 281120Z 2812/2912 01009G15KT P6SM SKC
     FM290600 03005KT P6SM SKC=



000
FTUS42 KMFL 281120
TAFMIA
TAF
KMIA 281120Z 2812/2912 34010KT P6SM FEW040
     FM281800 02010G15KT P6SM SCT040
     FM290600 02007KT P6SM FEW250=



000
FTUS42 KMFL 281120
TAFPBI
TAF
KPBI 281120Z 2812/2912 32011G17KT P6SM SKC
     FM281900 02011G17KT P6SM SCT040
     FM290600 03008KT P6SM FEW250=



000
FTUS42 KMFL 280922 AAA
TAFMIA
TAF AMD
KMIA 280922Z 2809/2906 34009KT P6SM SKC
     FM281800 02010KT P6SM SCT040=



000
FTUS42 KMFL 280922 AAA
TAFPBI
TAF AMD
KPBI 280922Z 2809/2906 34011KT P6SM SKC
     FM281900 02010KT P6SM SCT040=



000
FTUS42 KMFL 280922 AAA
TAFAPF
TAF AMD
KAPF 280922Z 2809/2906 02010KT P6SM SKC=



000
FTUS42 KMFL 280922 AAA
TAFMIA
TAF AMD
KMIA 280922Z 2809/2906 34009KT P6SM SKC
     FM281800 02010KT P6SM SCT040=



000
FTUS42 KMFL 280922 AAA
TAFAPF
TAF AMD
KAPF 280922Z 2809/2906 02010KT P6SM SKC=



000
FTUS42 KMFL 280922 AAA
TAFPBI
TAF AMD
KPBI 280922Z 2809/2906 34011KT P6SM SKC
     FM281900 02010KT P6SM SCT040=



000
FTUS42 KMFL 280922 AAA
TAFFLL
TAF AMD
KFLL 280922Z 2809/2906 34010KT P6SM SKC
     FM281800 02010KT P6SM SCT040=



000
FTUS42 KMFL 280922 AAA
TAFFLL
TAF AMD
KFLL 280922Z 2809/2906 34010KT P6SM SKC
     FM281800 02010KT P6SM SCT040=



000
FTUS42 KMFL 280528
TAFMIA
TAF
KMIA 280528Z 2806/2906 35008KT P6SM SKC
     FM281800 02010KT P6SM SCT040=



000
FTUS42 KMFL 280528
TAFPBI
TAF
KPBI 280528Z 2806/2906 34009KT P6SM SKC
     FM281900 02010KT P6SM SCT040=



000
FTUS42 KMFL 280528
TAFMIA
TAF
KMIA 280528Z 2806/2906 35008KT P6SM SKC
     FM281800 02010KT P6SM SCT040=



000
FTUS42 KMFL 280528
TAFAPF
TAF
KAPF 280528Z 2806/2906 01009KT P6SM SKC=



000
FTUS42 KMFL 280528
TAFPBI
TAF
KPBI 280528Z 2806/2906 34009KT P6SM SKC
     FM281900 02010KT P6SM SCT040=



000
FTUS42 KMFL 280528
TAFFLL
TAF
KFLL 280528Z 2806/2906 34008KT P6SM SKC
     FM281800 02010KT P6SM SCT040=



000
FTUS42 KMFL 280528
TAFAPF
TAF
KAPF 280528Z 2806/2906 01009KT P6SM SKC=



000
FTUS42 KMFL 280528
TAFFLL
TAF
KFLL 280528Z 2806/2906 34008KT P6SM SKC
     FM281800 02010KT P6SM SCT040=



000
FTUS42 KMFL 280253 AAA
TAFFLL
TAF AMD
KFLL 280253Z 2803/2824 34008KT P6SM SKC
     FM281800 02010KT P6SM SCT040=



000
FTUS42 KMFL 280253 AAA
TAFFLL
TAF AMD
KFLL 280253Z 2803/2824 34008KT P6SM SKC
     FM281800 02010KT P6SM SCT040=



000
FTUS42 KMFL 280253 AAA
TAFMIA
TAF AMD
KMIA 280253Z 2803/2824 35008KT P6SM SKC
     FM281800 02010KT P6SM SCT040=



000
FTUS42 KMFL 280253 AAA
TAFPBI
TAF AMD
KPBI 280253Z 2803/2824 34008KT P6SM SKC
     FM282000 02010KT P6SM SCT040=



000
FTUS42 KMFL 280253 AAA
TAFMIA
TAF AMD
KMIA 280253Z 2803/2824 35008KT P6SM SKC
     FM281800 02010KT P6SM SCT040=



000
FTUS42 KMFL 280253 AAA
TAFAPF
TAF AMD
KAPF 280253Z 2803/2824 34007KT P6SM SKC
     FM280800 01010KT P6SM SKC=



000
FTUS42 KMFL 280253 AAA
TAFAPF
TAF AMD
KAPF 280253Z 2803/2824 34007KT P6SM SKC
     FM280800 01010KT P6SM SKC=



000
FTUS42 KMFL 280253 AAA
TAFPBI
TAF AMD
KPBI 280253Z 2803/2824 34008KT P6SM SKC
     FM282000 02010KT P6SM SCT040=



000
FTUS42 KMFL 272327
TAFMIA
TAF
KMIA 272327Z 2800/2824 35009KT P6SM SKC
     FM281800 02010KT P6SM SCT040=



000
FTUS42 KMFL 272327
TAFFLL
TAF
KFLL 272327Z 2800/2824 34011KT P6SM SKC
     FM281800 02010KT P6SM SCT040=



000
FTUS42 KMFL 272327
TAFPBI
TAF
KPBI 272327Z 2800/2824 34010KT P6SM SKC
     FM282000 02010KT P6SM SCT040=



000
FTUS42 KMFL 272327
TAFAPF
TAF
KAPF 272327Z 2800/2824 33010KT P6SM SKC
     FM280800 01010KT P6SM SKC=



000
FTUS42 KMFL 272327
TAFPBI
TAF
KPBI 272327Z 2800/2824 34010KT P6SM SKC
     FM282000 02010KT P6SM SCT040=



000
FTUS42 KMFL 272327
TAFAPF
TAF
KAPF 272327Z 2800/2824 33010KT P6SM SKC
     FM280800 01010KT P6SM SKC=



000
FTUS42 KMFL 272327
TAFFLL
TAF
KFLL 272327Z 2800/2824 34011KT P6SM SKC
     FM281800 02010KT P6SM SCT040=



000
FTUS42 KMFL 272327
TAFMIA
TAF
KMIA 272327Z 2800/2824 35009KT P6SM SKC
     FM281800 02010KT P6SM SCT040=



000
FTUS42 KMFL 272130 AAB
TAFAPF
TAF AMD
KAPF 272130Z 2722/2818 30010KT P6SM SKC
     FM280000 35008KT P6SM SKC
     FM281400 02010G17KT P6SM SKC=



000
FTUS42 KMFL 272130 AAB
TAFAPF
TAF AMD
KAPF 272130Z 2722/2818 30010KT P6SM SKC
     FM280000 35008KT P6SM SKC
     FM281400 02010G17KT P6SM SKC=



000
FTUS42 KMFL 271945 AAA
TAFFLL
TAF AMD
KFLL 271945Z 2720/2818 35011KT P6SM SKC=



000
FTUS42 KMFL 271945 AAA
TAFFLL
TAF AMD
KFLL 271945Z 2720/2818 35011KT P6SM SKC=



000
FTUS42 KMFL 271945 AAA
TAFMIA
TAF AMD
KMIA 271945Z 2720/2818 35010KT P6SM SKC=



000
FTUS42 KMFL 271945 AAA
TAFMIA
TAF AMD
KMIA 271945Z 2720/2818 35010KT P6SM SKC=



000
FTUS42 KMFL 271944 AAA
TAFPBI
TAF AMD
KPBI 271944Z 2720/2818 35011KT P6SM SKC=



000
FTUS42 KMFL 271944 AAA
TAFPBI
TAF AMD
KPBI 271944Z 2720/2818 35011KT P6SM SKC=



000
FTUS42 KMFL 271943 AAA
TAFAPF
TAF AMD
KAPF 271943Z 2720/2818 32012KT P6SM SKC
     FM280000 35008KT P6SM SKC
     FM281400 02010G17KT P6SM SKC=



000
FTUS42 KMFL 271943 AAA
TAFAPF
TAF AMD
KAPF 271943Z 2720/2818 32012KT P6SM SKC
     FM280000 35008KT P6SM SKC
     FM281400 02010G17KT P6SM SKC=



000
FTUS42 KMFL 271740
TAFFLL
TAF
KFLL 271740Z 2718/2818 35013G20KT P6SM FEW018 FEW140 FEW250
     FM272000 35011KT P6SM SKC
     FM281200 35012KT P6SM SCT250=



000
FTUS42 KMFL 271740
TAFPBI
TAF
KPBI 271740Z 2718/2818 35014G18KT P6SM FEW250
     FM272000 33011KT P6SM SKC
     FM281200 35011KT P6SM SCT250=



000
FTUS42 KMFL 271740
TAFMIA
TAF
KMIA 271740Z 2718/2818 36012G18KT P6SM FEW040 FEW150
     FM272300 34008KT P6SM SKC
     FM281200 34007KT P6SM FEW250
     FM281500 36009KT P6SM FEW250=



000
FTUS42 KMFL 271740
TAFAPF
TAF
KAPF 271740Z 2718/2818 01010G15KT P6SM SKC
     FM280000 36008KT P6SM SKC
     FM281400 02010G17KT P6SM SKC=



000
FTUS42 KMFL 271740
TAFMIA
TAF
KMIA 271740Z 2718/2818 36012G18KT P6SM FEW040 FEW150
     FM272300 34008KT P6SM SKC
     FM281200 34007KT P6SM FEW250
     FM281500 36009KT P6SM FEW250=



000
FTUS42 KMFL 271740
TAFPBI
TAF
KPBI 271740Z 2718/2818 35014G18KT P6SM FEW250
     FM272000 33011KT P6SM SKC
     FM281200 35011KT P6SM SCT250=



000
FTUS42 KMFL 271740
TAFAPF
TAF
KAPF 271740Z 2718/2818 01010G15KT P6SM SKC
     FM280000 36008KT P6SM SKC
     FM281400 02010G17KT P6SM SKC=



000
FTUS42 KMFL 271740
TAFFLL
TAF
KFLL 271740Z 2718/2818 35013G20KT P6SM FEW018 FEW140 FEW250
     FM272000 35011KT P6SM SKC
     FM281200 35012KT P6SM SCT250=



000
FTUS42 KMFL 271124
TAFPBI
TAF
KPBI 271124Z 2712/2812 32011KT P6SM SKC
     FM271800 34012G18KT P6SM FEW250
     FM271900 33011KT P6SM SKC=



000
FTUS42 KMFL 271124
TAFAPF
TAF
KAPF 271124Z 2712/2812 02004KT P6SM SKC
     FM271400 01008KT P6SM SKC
     FM271700 36010G16KT P6SM SKC
     FM272300 36007KT P6SM SKC=



000
FTUS42 KMFL 271124
TAFFLL
TAF
KFLL 271124Z 2712/2812 33007KT P6SM SKC
     FM271400 33012KT P6SM SKC
     FM271700 35013G19KT P6SM SKC
     FM272000 35011KT P6SM SKC=



000
FTUS42 KMFL 271124
TAFMIA
TAF
KMIA 271124Z 2712/2812 33009KT P6SM FEW040 FEW250
     FM271500 34009G15KT P6SM FEW250
     FM272300 34007KT P6SM SKC=



000
FTUS42 KMFL 271124
TAFPBI
TAF
KPBI 271124Z 2712/2812 32011KT P6SM SKC
     FM271800 34012G18KT P6SM FEW250
     FM271900 33011KT P6SM SKC=



000
FTUS42 KMFL 271124
TAFAPF
TAF
KAPF 271124Z 2712/2812 02004KT P6SM SKC
     FM271400 01008KT P6SM SKC
     FM271700 36010G16KT P6SM SKC
     FM272300 36007KT P6SM SKC=



000
FTUS42 KMFL 271124
TAFMIA
TAF
KMIA 271124Z 2712/2812 33009KT P6SM FEW040 FEW250
     FM271500 34009G15KT P6SM FEW250
     FM272300 34007KT P6SM SKC=



000
FTUS42 KMFL 271124
TAFFLL
TAF
KFLL 271124Z 2712/2812 33007KT P6SM SKC
     FM271400 33012KT P6SM SKC
     FM271700 35013G19KT P6SM SKC
     FM272000 35011KT P6SM SKC=



000
FTUS42 KMFL 270905 AAA
TAFAPF
TAF AMD
KAPF 270905Z 2709/2806 35005KT P6SM SKC
     FM271400 35011KT P6SM SKC=



000
FTUS42 KMFL 270905 AAA
TAFPBI
TAF AMD
KPBI 270905Z 2709/2806 32009KT P6SM SKC
     FM271300 33012KT P6SM SKC=



000
FTUS42 KMFL 270905 AAA
TAFFLL
TAF AMD
KFLL 270905Z 2709/2806 34009KT P6SM SKC
     FM271300 34013KT P6SM SKC=



000
FTUS42 KMFL 270905 AAA
TAFAPF
TAF AMD
KAPF 270905Z 2709/2806 35005KT P6SM SKC
     FM271400 35011KT P6SM SKC=



000
FTUS42 KMFL 270905 AAA
TAFMIA
TAF AMD
KMIA 270905Z 2709/2806 34008KT P6SM SKC
     FM271300 33011KT P6SM SKC=



000
FTUS42 KMFL 270905 AAA
TAFMIA
TAF AMD
KMIA 270905Z 2709/2806 34008KT P6SM SKC
     FM271300 33011KT P6SM SKC=



000
FTUS42 KMFL 270905 AAA
TAFPBI
TAF AMD
KPBI 270905Z 2709/2806 32009KT P6SM SKC
     FM271300 33012KT P6SM SKC=



000
FTUS42 KMFL 270905 AAA
TAFFLL
TAF AMD
KFLL 270905Z 2709/2806 34009KT P6SM SKC
     FM271300 34013KT P6SM SKC=



000
FTUS42 KMFL 270532
TAFPBI
TAF
KPBI 270532Z 2706/2806 33009KT P6SM SCT150
     FM271300 33012KT P6SM SKC=



000
FTUS42 KMFL 270532
TAFAPF
TAF
KAPF 270532Z 2706/2806 35004KT P6SM SKC
     FM271400 35011KT P6SM SKC=



000
FTUS42 KMFL 270532
TAFFLL
TAF
KFLL 270532Z 2706/2806 34009KT P6SM BKN200
     FM271300 34013KT P6SM SKC=



000
FTUS42 KMFL 270532
TAFMIA
TAF
KMIA 270532Z 2706/2806 34006KT P6SM BKN200
     FM271300 33011KT P6SM SKC=



000
FTUS42 KMFL 270532
TAFMIA
TAF
KMIA 270532Z 2706/2806 34006KT P6SM BKN200
     FM271300 33011KT P6SM SKC=



000
FTUS42 KMFL 270532
TAFAPF
TAF
KAPF 270532Z 2706/2806 35004KT P6SM SKC
     FM271400 35011KT P6SM SKC=



000
FTUS42 KMFL 270532
TAFFLL
TAF
KFLL 270532Z 2706/2806 34009KT P6SM BKN200
     FM271300 34013KT P6SM SKC=



000
FTUS42 KMFL 270532
TAFPBI
TAF
KPBI 270532Z 2706/2806 33009KT P6SM SCT150
     FM271300 33012KT P6SM SKC=



000
FTUS42 KMFL 270244 AAA
TAFFLL
TAF AMD
KFLL 270244Z 2703/2724 33008KT P6SM SCT200
     FM270500 34009KT P6SM SKC
     FM271300 32014KT P6SM SKC=



000
FTUS42 KMFL 270244 AAA
TAFFLL
TAF AMD
KFLL 270244Z 2703/2724 33008KT P6SM SCT200
     FM270500 34009KT P6SM SKC
     FM271300 32014KT P6SM SKC=



000
FTUS42 KMFL 270244 AAA
TAFPBI
TAF AMD
KPBI 270244Z 2703/2724 32009KT P6SM SCT200
     FM270400 33007KT P6SM SKC
     FM271300 35013KT P6SM SKC=



000
FTUS42 KMFL 270244 AAA
TAFAPF
TAF AMD
KAPF 270244Z 2703/2724 35002KT P6SM SKC
     FM271400 35012KT P6SM SKC=



000
FTUS42 KMFL 270244 AAA
TAFPBI
TAF AMD
KPBI 270244Z 2703/2724 32009KT P6SM SCT200
     FM270400 33007KT P6SM SKC
     FM271300 35013KT P6SM SKC=



000
FTUS42 KMFL 270244 AAA
TAFMIA
TAF AMD
KMIA 270244Z 2703/2724 34008KT P6SM BKN200
     FM270500 34010KT P6SM SKC
     FM271300 33014KT P6SM SKC=



000
FTUS42 KMFL 270244 AAA
TAFAPF
TAF AMD
KAPF 270244Z 2703/2724 35002KT P6SM SKC
     FM271400 35012KT P6SM SKC=



000
FTUS42 KMFL 270244 AAA
TAFMIA
TAF AMD
KMIA 270244Z 2703/2724 34008KT P6SM BKN200
     FM270500 34010KT P6SM SKC
     FM271300 33014KT P6SM SKC=



000
FTUS42 KMFL 262322
TAFFLL
TAF
KFLL 262322Z 2700/2724 33010KT P6SM FEW040 BKN100
     FM270400 34011KT P6SM SKC
     FM271300 33014KT P6SM SKC=



000
FTUS42 KMFL 262322
TAFAPF
TAF
KAPF 262322Z 2700/2724 01007KT P6SM SCT100
     FM271400 35012KT P6SM SKC=



000
FTUS42 KMFL 262322
TAFMIA
TAF
KMIA 262322Z 2700/2724 33007KT P6SM FEW035 BKN090
     FM270400 34010KT P6SM SKC
     FM271300 33014KT P6SM SKC=



000
FTUS42 KMFL 262322
TAFMIA
TAF
KMIA 262322Z 2700/2724 33007KT P6SM FEW035 BKN090
     FM270400 34010KT P6SM SKC
     FM271300 33014KT P6SM SKC=



000
FTUS42 KMFL 262322
TAFFLL
TAF
KFLL 262322Z 2700/2724 33010KT P6SM FEW040 BKN100
     FM270400 34011KT P6SM SKC
     FM271300 33014KT P6SM SKC=



000
FTUS42 KMFL 262322
TAFAPF
TAF
KAPF 262322Z 2700/2724 01007KT P6SM SCT100
     FM271400 35012KT P6SM SKC=



000
FTUS42 KMFL 262322
TAFPBI
TAF
KPBI 262322Z 2700/2724 32008KT P6SM BKN050 BKN130
     FM270400 33007KT P6SM SKC
     FM271300 33014KT P6SM SKC=



000
FTUS42 KMFL 262052 AAD
TAFFLL
TAF AMD
KFLL 262052Z 2621/2718 34012KT P6SM SCT011 SCT090 BKN250
     FM262200 33010KT P6SM FEW010 SCT025 BKN120
     FM270000 32007KT P6SM FEW250=



000
FTUS42 KMFL 262052 AAD
TAFFLL
TAF AMD
KFLL 262052Z 2621/2718 34012KT P6SM SCT011 SCT090 BKN250
     FM262200 33010KT P6SM FEW010 SCT025 BKN120
     FM270000 32007KT P6SM FEW250=



000
FTUS42 KMFL 262039 AAC
TAFFLL
TAF AMD
KFLL 262039Z 2621/2718 32012G22KT P6SM SCT011 SCT090 BKN250
     FM262200 33010KT P6SM FEW010 SCT025 BKN120
     FM270000 32007KT P6SM FEW250=



000
FTUS42 KMFL 262039 AAC
TAFFLL
TAF AMD
KFLL 262039Z 2621/2718 32012G22KT P6SM SCT011 SCT090 BKN250
     FM262200 33010KT P6SM FEW010 SCT025 BKN120
     FM270000 32007KT P6SM FEW250=



000
FTUS42 KMFL 262039 AAC
TAFPBI
TAF AMD
KPBI 262039Z 2621/2718 32013KT P6SM SCT013 BKN120
     FM262100 32007KT P6SM FEW010 SCT025 BKN120
     FM270000 33005KT P6SM FEW250=



000
FTUS42 KMFL 262039 AAC
TAFPBI
TAF AMD
KPBI 262039Z 2621/2718 32013KT P6SM SCT013 BKN120
     FM262100 32007KT P6SM FEW010 SCT025 BKN120
     FM270000 33005KT P6SM FEW250=



000
FTUS42 KMFL 262007 AAC
TAFMIA
TAF AMD
KMIA 262007Z 2620/2718 33014G23KT P6SM OVC016
     FM262200 33007KT P6SM FEW010 SCT025 BKN120
     FM270100 32005KT P6SM FEW250=



000
FTUS42 KMFL 262007 AAC
TAFMIA
TAF AMD
KMIA 262007Z 2620/2718 33014G23KT P6SM OVC016
     FM262200 33007KT P6SM FEW010 SCT025 BKN120
     FM270100 32005KT P6SM FEW250=



000
FTUS42 KMFL 262006 AAB
TAFFLL
TAF AMD
KFLL 262006Z 2620/2718 32012G24KT P6SM OVC011
     FM262200 33010KT P6SM FEW010 SCT025 BKN120
     FM270000 32007KT P6SM FEW250=



000
FTUS42 KMFL 262006 AAB
TAFFLL
TAF AMD
KFLL 262006Z 2620/2718 32012G24KT P6SM OVC011
     FM262200 33010KT P6SM FEW010 SCT025 BKN120
     FM270000 32007KT P6SM FEW250=



000
FTUS42 KMFL 261924 AAA
TAFAPF
TAF AMD
KAPF 261924Z 2619/2718 33011KT P6SM SCT020 BKN100
     FM262100 35007KT P6SM FEW010 SCT025 BKN120
     FM270100 35005KT P6SM FEW250=



000
FTUS42 KMFL 261924 AAA
TAFAPF
TAF AMD
KAPF 261924Z 2619/2718 33011KT P6SM SCT020 BKN100
     FM262100 35007KT P6SM FEW010 SCT025 BKN120
     FM270100 35005KT P6SM FEW250=



000
FTUS42 KMFL 261923 AAB
TAFPBI
TAF AMD
KPBI 261923Z 2619/2718 32013KT P6SM SCT011 OVC035
      TEMPO 2619/2621 BKN011
     FM262100 32007KT P6SM FEW010 SCT025 BKN120
     FM270000 33005KT P6SM FEW250=



000
FTUS42 KMFL 261923 AAB
TAFPBI
TAF AMD
KPBI 261923Z 2619/2718 32013KT P6SM SCT011 OVC035
      TEMPO 2619/2621 BKN011
     FM262100 32007KT P6SM FEW010 SCT025 BKN120
     FM270000 33005KT P6SM FEW250=



000
FTUS42 KMFL 261923 AAA
TAFFLL
TAF AMD
KFLL 261923Z 2619/2718 32012KT P6SM SCT013 BKN025 OVC050
      TEMPO 2619/2621 BKN013
     FM262200 33010KT P6SM FEW010 SCT025 BKN120
     FM270000 32007KT P6SM FEW250=



000
FTUS42 KMFL 261923 AAA
TAFFLL
TAF AMD
KFLL 261923Z 2619/2718 32012KT P6SM SCT013 BKN025 OVC050
      TEMPO 2619/2621 BKN013
     FM262200 33010KT P6SM FEW010 SCT025 BKN120
     FM270000 32007KT P6SM FEW250=



000
FTUS42 KMFL 261922 AAB
TAFMIA
TAF AMD
KMIA 261922Z 2619/2718 31014KT P6SM SCT016 BKN035 OVC050
      TEMPO 2619/2621 BKN016
     FM262300 33007KT P6SM FEW010 SCT025 BKN120
     FM270100 32005KT P6SM FEW250=



000
FTUS42 KMFL 261922 AAB
TAFMIA
TAF AMD
KMIA 261922Z 2619/2718 31014KT P6SM SCT016 BKN035 OVC050
      TEMPO 2619/2621 BKN016
     FM262300 33007KT P6SM FEW010 SCT025 BKN120
     FM270100 32005KT P6SM FEW250=



000
FTUS42 KMFL 261824 AAA
TAFPBI
TAF AMD
KPBI 261824Z 2618/2718 31013KT P6SM SCT010 BKN020 OVC050
     FM262100 32007KT P6SM FEW010 SCT025 BKN120
     FM270000 33005KT P6SM FEW250=



000
FTUS42 KMFL 261824 AAA
TAFPBI
TAF AMD
KPBI 261824Z 2618/2718 31013KT P6SM SCT010 BKN020 OVC050
     FM262100 32007KT P6SM FEW010 SCT025 BKN120
     FM270000 33005KT P6SM FEW250=



000
FTUS42 KMFL 261824 AAA
TAFMIA
TAF AMD
KMIA 261824Z 2618/2718 31014KT P6SM SCT010 BKN025 OVC050
     FM262300 33007KT P6SM FEW010 SCT025 BKN120
     FM270100 32005KT P6SM FEW250=



000
FTUS42 KMFL 261730
TAFPBI
TAF
KPBI 261730Z 2618/2718 31011KT P6SM SCT010 BKN025 OVC050
     FM262100 32007KT P6SM FEW010 SCT025 BKN120
     FM270000 33005KT P6SM FEW250=



000
FTUS42 KMFL 261730
TAFFLL
TAF
KFLL 261730Z 2618/2718 32012KT P6SM SCT010 BKN025 OVC050
     FM262200 33010KT P6SM FEW010 SCT025 BKN120
     FM270000 32007KT P6SM FEW250=



000
FTUS42 KMFL 261730
TAFAPF
TAF
KAPF 261730Z 2618/2718 35011KT P6SM SCT010 BKN020 OVC040
     FM262100 35007KT P6SM FEW010 SCT025 BKN120
     FM270100 35005KT P6SM FEW250=



000
FTUS42 KMFL 261730
TAFMIA
TAF
KMIA 261730Z 2618/2718 31012KT P6SM SCT010 BKN025 OVC050
     FM262300 33007KT P6SM FEW010 SCT025 BKN120
     FM270100 32005KT P6SM FEW250=



000
FTUS42 KMFL 261730
TAFMIA
TAF
KMIA 261730Z 2618/2718 31012KT P6SM SCT010 BKN025 OVC050
     FM262300 33007KT P6SM FEW010 SCT025 BKN120
     FM270100 32005KT P6SM FEW250=



000
FTUS42 KMFL 261730
TAFFLL
TAF
KFLL 261730Z 2618/2718 32012KT P6SM SCT010 BKN025 OVC050
     FM262200 33010KT P6SM FEW010 SCT025 BKN120
     FM270000 32007KT P6SM FEW250=



000
FTUS42 KMFL 261730
TAFPBI
TAF
KPBI 261730Z 2618/2718 31011KT P6SM SCT010 BKN025 OVC050
     FM262100 32007KT P6SM FEW010 SCT025 BKN120
     FM270000 33005KT P6SM FEW250=



000
FTUS42 KMFL 261730
TAFAPF
TAF
KAPF 261730Z 2618/2718 35011KT P6SM SCT010 BKN020 OVC040
     FM262100 35007KT P6SM FEW010 SCT025 BKN120
     FM270100 35005KT P6SM FEW250=



000
FTUS42 KMFL 261555 AAC
TAFFLL
TAF AMD
KFLL 261555Z 2616/2712 31015KT P6SM VCSH FEW005 SCT010 BKN060
      TEMPO 2616/2618 BKN010
     FM261800 32015KT P6SM FEW010 SCT025 BKN120
     FM270000 32007KT P6SM FEW020 SCT250=



000
FTUS42 KMFL 261555 AAC
TAFPBI
TAF AMD
KPBI 261555Z 2616/2712 31015KT P6SM VCSH SCT010 BKN020 OVC040
      TEMPO 2616/2618 BKN010
     FM261800 32015KT P6SM FEW010 SCT025 BKN120
     FM270000 32007KT P6SM FEW020 SCT250=



000
FTUS42 KMFL 261555 AAC
TAFAPF
TAF AMD
KAPF 261555Z 2616/2712 33013KT P6SM VCSH SCT005 BKN015 OVC025
     FM261800 33013KT P6SM FEW010 SCT025 BKN120
     FM270000 VRB05KT P6SM SKC=



000
FTUS42 KMFL 261555 AAC
TAFMIA
TAF AMD
KMIA 261555Z 2616/2712 32015KT P6SM VCSH SCT010 BKN025 OVC250
      TEMPO 2616/2618 BKN010
     FM261800 32015KT P6SM FEW010 SCT025 BKN120
     FM270200 32007KT P6SM FEW020 SCT250=



000
FTUS42 KMFL 261526 AAB
TAFAPF
TAF AMD
KAPF 261526Z 2615/2712 33013KT P6SM VCSH SCT005 BKN015 OVC025
     FM270000 VRB05KT P6SM SKC=



000
FTUS42 KMFL 261526 AAB
TAFPBI
TAF AMD
KPBI 261526Z 2615/2712 31015KT P6SM VCSH SCT010 BKN020 OVC040
      TEMPO 2615/2617 BKN010
     FM270000 32007KT P6SM FEW020 SCT250=



000
FTUS42 KMFL 261526 AAB
TAFAPF
TAF AMD
KAPF 261526Z 2615/2712 33013KT P6SM VCSH SCT005 BKN015 OVC025
     FM270000 VRB05KT P6SM SKC=



000
FTUS42 KMFL 261526 AAB
TAFFLL
TAF AMD
KFLL 261526Z 2615/2712 28013KT P6SM VCSH FEW010 SCT025 BKN060
      TEMPO 2615/2617 BKN010
     FM261700 32015KT P6SM VCSH SCT010 BKN025 OVC050
     FM270000 32007KT P6SM FEW020 SCT250=



000
FTUS42 KMFL 261526 AAB
TAFFLL
TAF AMD
KFLL 261526Z 2615/2712 28013KT P6SM VCSH FEW010 SCT025 BKN060
      TEMPO 2615/2617 BKN010
     FM261700 32015KT P6SM VCSH SCT010 BKN025 OVC050
     FM270000 32007KT P6SM FEW020 SCT250=



000
FTUS42 KMFL 261526 AAB
TAFMIA
TAF AMD
KMIA 261526Z 2615/2712 27010KT P6SM VCSH SCT010 BKN025 OVC250
      TEMPO 2615/2617 BKN010
     FM261800 32015KT P6SM VCSH SCT010 BKN025 OVC050
     FM270200 32007KT P6SM FEW020 SCT250=



000
FTUS42 KMFL 261526 AAB
TAFPBI
TAF AMD
KPBI 261526Z 2615/2712 31015KT P6SM VCSH SCT010 BKN020 OVC040
      TEMPO 2615/2617 BKN010
     FM270000 32007KT P6SM FEW020 SCT250=



000
FTUS42 KMFL 261526 AAB
TAFMIA
TAF AMD
KMIA 261526Z 2615/2712 27010KT P6SM VCSH SCT010 BKN025 OVC250
      TEMPO 2615/2617 BKN010
     FM261800 32015KT P6SM VCSH SCT010 BKN025 OVC050
     FM270200 32007KT P6SM FEW020 SCT250=



000
FTUS42 KMFL 261521 AAA
TAFPBI
TAF AMD
KPBI 261521Z 2615/2712 31015KT P6SM VCSH SCT010 BKN020 OVC040
     FM270000 32007KT P6SM FEW020 SCT250=



000
FTUS42 KMFL 261521 AAA
TAFAPF
TAF AMD
KAPF 261521Z 2615/2712 33013KT P6SM VCSH SCT005 BKN015 OVC025
     FM270000 VRB05KT P6SM SKC=



000
FTUS42 KMFL 261521 AAA
TAFFLL
TAF AMD
KFLL 261521Z 2615/2712 28013KT P6SM VCSH FEW010 SCT025 BKN060
     FM261600 32015KT P6SM VCSH SCT010 BKN025 OVC050
     FM270000 32007KT P6SM FEW020 SCT250=



000
FTUS42 KMFL 261521 AAA
TAFFLL
TAF AMD
KFLL 261521Z 2615/2712 28013KT P6SM VCSH FEW010 SCT025 BKN060
     FM261600 32015KT P6SM VCSH SCT010 BKN025 OVC050
     FM270000 32007KT P6SM FEW020 SCT250=



000
FTUS42 KMFL 261521 AAA
TAFMIA
TAF AMD
KMIA 261521Z 2615/2712 27010KT P6SM VCSH SCT010 BKN025 OVC250
     FM261800 32015KT P6SM VCSH SCT010 BKN025 OVC050
     FM270200 32007KT P6SM FEW020 SCT250=



000
FTUS42 KMFL 261521 AAA
TAFMIA
TAF AMD
KMIA 261521Z 2615/2712 27010KT P6SM VCSH SCT010 BKN025 OVC250
     FM261800 32015KT P6SM VCSH SCT010 BKN025 OVC050
     FM270200 32007KT P6SM FEW020 SCT250=



000
FTUS42 KMFL 261521 AAA
TAFPBI
TAF AMD
KPBI 261521Z 2615/2712 31015KT P6SM VCSH SCT010 BKN020 OVC040
     FM270000 32007KT P6SM FEW020 SCT250=



000
FTUS42 KMFL 261521 AAA
TAFAPF
TAF AMD
KAPF 261521Z 2615/2712 33013KT P6SM VCSH SCT005 BKN015 OVC025
     FM270000 VRB05KT P6SM SKC=



000
FTUS42 KMFL 261132
TAFMIA
TAF
KMIA 261132Z 2612/2712 21008KT P6SM VCTS SCT030CB BKN050
     FM261500 27013KT P6SM VCSH SCT015 BKN030
     FM261900 32013KT P6SM VCSH FEW020 SCT050 BKN120
     FM270200 32007KT P6SM FEW020 SCT250=



000
FTUS42 KMFL 261132
TAFFLL
TAF
KFLL 261132Z 2612/2712 23007KT P6SM VCTS SCT030CB BKN050
      TEMPO 2613/2614 VRB20G30KT 1SM +TSRA SCT015 BKN025CB OVC040
     FM261400 27013KT P6SM VCSH SCT015 BKN030
     FM261700 32013KT P6SM VCSH FEW020 SCT050 BKN120
     FM270000 32007KT P6SM FEW020 SCT250=



000
FTUS42 KMFL 261132
TAFPBI
TAF
KPBI 261132Z 2612/2712 23008KT P6SM VCTS SCT030CB BKN050
      TEMPO 2612/2613 VRB20G30KT 1SM +TSRA SCT015 BKN025CB OVC040
     FM261300 27013KT P6SM VCSH SCT015 BKN030
     FM261600 32013KT P6SM VCSH FEW020 SCT050 BKN120
     FM270000 32007KT P6SM FEW020 SCT250=



000
FTUS42 KMFL 261132
TAFAPF
TAF
KAPF 261132Z 2612/2712 28013KT P6SM VCSH SCT015 BKN030
      TEMPO 2612/2615 3SM RA BKN015
     FM261500 35015KT P6SM SCT030 BKN120
     FM270000 VRB05KT P6SM SKC=



000
FTUS42 KMFL 261132
TAFMIA
TAF
KMIA 261132Z 2612/2712 21008KT P6SM VCTS SCT030CB BKN050
     FM261500 27013KT P6SM VCSH SCT015 BKN030
     FM261900 32013KT P6SM VCSH FEW020 SCT050 BKN120
     FM270200 32007KT P6SM FEW020 SCT250=



000
FTUS42 KMFL 261132
TAFPBI
TAF
KPBI 261132Z 2612/2712 23008KT P6SM VCTS SCT030CB BKN050
      TEMPO 2612/2613 VRB20G30KT 1SM +TSRA SCT015 BKN025CB OVC040
     FM261300 27013KT P6SM VCSH SCT015 BKN030
     FM261600 32013KT P6SM VCSH FEW020 SCT050 BKN120
     FM270000 32007KT P6SM FEW020 SCT250=



000
FTUS42 KMFL 261132
TAFAPF
TAF
KAPF 261132Z 2612/2712 28013KT P6SM VCSH SCT015 BKN030
      TEMPO 2612/2615 3SM RA BKN015
     FM261500 35015KT P6SM SCT030 BKN120
     FM270000 VRB05KT P6SM SKC=



000
FTUS42 KMFL 261132
TAFFLL
TAF
KFLL 261132Z 2612/2712 23007KT P6SM VCTS SCT030CB BKN050
      TEMPO 2613/2614 VRB20G30KT 1SM +TSRA SCT015 BKN025CB OVC040
     FM261400 27013KT P6SM VCSH SCT015 BKN030
     FM261700 32013KT P6SM VCSH FEW020 SCT050 BKN120
     FM270000 32007KT P6SM FEW020 SCT250=



000
FTUS42 KMFL 260941 AAC
TAFAPF
TAF AMD
KAPF 260941Z 2610/2706 23012KT P6SM VCTS SCT025CB BKN050
      TEMPO 2610/2611 VRB20G30KT 1SM +TSRA SCT010 BKN020CB OVC030
     FM261200 32013G20KT P6SM VCSH OVC015
     FM261500 36013G20KT P6SM OVC025=



000
FTUS42 KMFL 260941 AAC
TAFAPF
TAF AMD
KAPF 260941Z 2610/2706 23012KT P6SM VCTS SCT025CB BKN050
      TEMPO 2610/2611 VRB20G30KT 1SM +TSRA SCT010 BKN020CB OVC030
     FM261200 32013G20KT P6SM VCSH OVC015
     FM261500 36013G20KT P6SM OVC025=



000
FTUS42 KMFL 260906 AAA
TAFFLL
TAF AMD
KFLL 260906Z 2609/2706 19010KT P6SM VCSH BKN014
     FM261100 17010KT P6SM VCTS SCT005 BKN014 BKN025CB
     FM261500 32013KT P6SM VCSH OVC050=



000
FTUS42 KMFL 260906 AAB
TAFAPF
TAF AMD
KAPF 260906Z 2609/2706 23013KT P6SM VCTS SCT025CB BKN050
      TEMPO 2609/2611 3SM +TSRA BKN008 BKN025CB
     FM261200 32013G20KT P6SM VCSH OVC015
     FM261500 36013G20KT P6SM OVC025=



000
FTUS42 KMFL 260906 AAA
TAFMIA
TAF AMD
KMIA 260906Z 2609/2706 20007KT P6SM VCSH BKN010
     FM261100 17010KT P6SM VCTS SCT005 BKN015 BKN025CB
     FM261500 32013KT P6SM VCSH OVC050=



000
FTUS42 KMFL 260906 AAA
TAFPBI
TAF AMD
KPBI 260906Z 2609/2706 17008KT P6SM VCSH BKN012
     FM261100 17010KT P6SM VCTS SCT005 BKN012 BKN025CB
     FM261400 32015KT P6SM VCSH OVC050=



000
FTUS42 KMFL 260906 AAB
TAFAPF
TAF AMD
KAPF 260906Z 2609/2706 23013KT P6SM VCTS SCT025CB BKN050
      TEMPO 2609/2611 3SM +TSRA BKN008 BKN025CB
     FM261200 32013G20KT P6SM VCSH OVC015
     FM261500 36013G20KT P6SM OVC025=



000
FTUS42 KMFL 260906 AAA
TAFMIA
TAF AMD
KMIA 260906Z 2609/2706 20007KT P6SM VCSH BKN010
     FM261100 17010KT P6SM VCTS SCT005 BKN015 BKN025CB
     FM261500 32013KT P6SM VCSH OVC050=



    US Dept of Commerce
    National Oceanic and Atmospheric Administration
    National Weather Service
    1325 East West Highway
    Silver Spring, MD 20910
    Page Author: NWS Internet Services Team
Disclaimer
Information Quality
Credits
Glossary
Privacy Policy
Freedom of Information Act (FOIA)
About Us
Career Opportunities